createdAt,value
2022-08-19T00:02:07.077Z,18.09
2022-08-19T00:04:37.719Z,17.97
2022-08-19T00:07:08.690Z,17.95
2022-08-19T00:09:35.634Z,17.88
2022-08-19T00:12:03.208Z,18.18
2022-08-19T00:14:33.003Z,18.14
2022-08-19T00:17:00.999Z,18.22
2022-08-19T00:19:31.371Z,18.11
2022-08-19T00:21:58.353Z,18.06
2022-08-19T00:24:29.853Z,17.95
2022-08-19T00:26:58.048Z,17.96
2022-08-19T00:29:44.961Z,17.96
2022-08-19T00:32:13.140Z,18.06
2022-08-19T00:34:40.617Z,17.91
2022-08-19T00:37:07.535Z,17.80
2022-08-19T00:39:35.282Z,17.75
2022-08-19T00:42:02.349Z,17.69
2022-08-19T00:44:31.487Z,17.76
2022-08-19T00:47:01.083Z,17.75
2022-08-19T00:49:58.300Z,18.01
2022-08-19T00:52:30.191Z,17.98
2022-08-19T00:54:58.628Z,18.30
2022-08-19T00:57:31.001Z,18.26
2022-08-19T01:00:03.120Z,18.30
2022-08-19T01:02:32.059Z,18.06
2022-08-19T01:05:00.554Z,17.95
2022-08-19T01:07:27.375Z,17.91
2022-08-19T01:09:56.490Z,17.93
2022-08-19T01:12:23.998Z,17.72
2022-08-19T01:14:51.776Z,17.66
2022-08-19T01:17:20.224Z,17.83
2022-08-19T01:19:47.945Z,17.67
2022-08-19T01:22:30.203Z,17.71
2022-08-19T01:24:59.955Z,17.66
2022-08-19T01:27:29.590Z,17.65
2022-08-19T01:30:02.282Z,17.73
2022-08-19T01:32:33.984Z,17.56
2022-08-19T01:35:03.187Z,17.52
2022-08-19T01:37:31.564Z,17.37
2022-08-19T01:40:02.375Z,17.27
2022-08-19T01:42:33.260Z,17.44
2022-08-19T01:45:00.409Z,17.59
2022-08-19T01:47:29.877Z,17.59
2022-08-19T01:49:56.618Z,17.41
2022-08-19T01:52:23.228Z,17.27
2022-08-19T01:54:49.841Z,17.55
2022-08-19T01:57:16.877Z,17.55
2022-08-19T01:59:45.867Z,17.43
2022-08-19T02:02:12.588Z,17.56
2022-08-19T02:04:39.781Z,17.69
2022-08-19T02:07:08.082Z,17.59
2022-08-19T02:09:35.145Z,17.48
2022-08-19T02:12:01.818Z,17.57
2022-08-19T02:14:30.695Z,17.52
2022-08-19T02:16:57.334Z,17.62
2022-08-19T02:19:24.021Z,17.69
2022-08-19T02:21:50.636Z,17.61
2022-08-19T02:24:17.576Z,17.66
2022-08-19T02:26:44.223Z,17.53
2022-08-19T02:29:10.834Z,17.77
2022-08-19T02:31:37.520Z,17.78
2022-08-19T02:34:04.316Z,17.84
2022-08-19T02:36:33.928Z,17.67
2022-08-19T02:39:03.163Z,17.69
2022-08-19T02:41:34.503Z,17.75
2022-08-19T02:44:30.052Z,17.77
2022-08-19T02:46:52.486Z,17.64
2022-08-19T02:49:20.144Z,17.82
2022-08-19T02:51:47.015Z,17.81
2022-08-19T02:54:15.325Z,17.77
2022-08-19T02:56:44.171Z,17.70
2022-08-19T02:59:12.124Z,17.61
2022-08-19T03:01:43.349Z,17.69
2022-08-19T03:04:12.389Z,17.62
2022-08-19T03:06:41.154Z,17.69
2022-08-19T03:09:08.629Z,17.54
2022-08-19T03:11:38.110Z,17.48
2022-08-19T03:14:07.115Z,17.55
2022-08-19T03:16:50.109Z,17.71
2022-08-19T03:19:18.974Z,17.69
2022-08-19T03:21:46.443Z,17.77
2022-08-19T03:24:14.988Z,17.56
2022-08-19T03:26:45.767Z,17.73
2022-08-19T03:29:13.370Z,17.66
2022-08-19T03:31:52.190Z,17.65
2022-08-19T03:34:27.554Z,17.64
2022-08-19T03:36:56.308Z,17.52
2022-08-19T03:39:24.962Z,17.47
2022-08-19T03:42:32.062Z,17.58
2022-08-19T03:44:39.836Z,17.45
2022-08-19T03:47:06.680Z,17.56
2022-08-19T03:49:36.176Z,17.57
2022-08-19T03:52:06.621Z,17.56
2022-08-19T03:54:33.254Z,17.57
2022-08-19T03:57:00.427Z,17.52
2022-08-19T03:59:30.512Z,17.48
2022-08-19T04:02:00.002Z,17.47
2022-08-19T04:04:29.008Z,17.34
2022-08-19T04:06:56.844Z,17.58
2022-08-19T04:09:23.540Z,17.50
2022-08-19T04:11:55.060Z,17.59
2022-08-19T04:14:25.042Z,17.59
2022-08-19T04:16:52.696Z,17.44
2022-08-19T04:19:20.140Z,17.52
2022-08-19T04:21:50.174Z,17.66
2022-08-19T04:24:17.708Z,17.49
2022-08-19T04:26:44.846Z,17.18
2022-08-19T04:29:20.819Z,17.32
2022-08-19T04:31:47.634Z,17.18
2022-08-19T04:34:16.240Z,17.19
2022-08-19T04:36:45.619Z,17.11
2022-08-19T04:39:17.877Z,17.20
2022-08-19T04:42:04.049Z,16.85
2022-08-19T04:44:36.446Z,16.89
2022-08-19T04:47:11.697Z,17.07
2022-08-19T04:49:41.540Z,16.90
2022-08-19T04:52:09.394Z,16.69
2022-08-19T04:54:38.818Z,16.89
2022-08-19T04:57:09.701Z,16.96
2022-08-19T04:59:55.015Z,16.74
2022-08-19T05:02:25.654Z,16.84
2022-08-19T05:05:02.178Z,17.01
2022-08-19T05:07:29.177Z,16.84
2022-08-19T05:09:58.545Z,17.06
2022-08-19T05:12:29.099Z,16.98
2022-08-19T05:14:57.931Z,16.99
2022-08-19T05:17:38.674Z,16.92
2022-08-19T05:20:28.560Z,16.86
2022-08-19T05:22:56.013Z,16.81
2022-08-19T05:25:23.494Z,16.98
2022-08-19T05:27:50.728Z,17.04
2022-08-19T05:30:18.572Z,17.03
2022-08-19T05:32:47.272Z,17.00
2022-08-19T05:35:13.866Z,17.01
2022-08-19T05:37:41.724Z,17.10
2022-08-19T05:40:12.241Z,17.14
2022-08-19T05:42:40.161Z,17.01
2022-08-19T05:45:08.804Z,17.28
2022-08-19T05:47:36.571Z,17.08
2022-08-19T05:50:11.994Z,17.27
2022-08-19T05:52:45.927Z,17.14
2022-08-19T05:55:23.634Z,17.35
2022-08-19T05:57:50.233Z,17.24
2022-08-19T06:00:20.431Z,17.29
2022-08-19T06:02:52.739Z,17.53
2022-08-19T06:05:21.326Z,17.49
2022-08-19T06:07:48.294Z,17.44
2022-08-19T06:10:15.190Z,17.29
2022-08-19T06:12:42.055Z,17.37
2022-08-19T06:15:14.896Z,17.64
2022-08-19T06:17:45.186Z,17.58
2022-08-19T06:20:15.404Z,17.85
2022-08-19T06:22:45.018Z,17.98
2022-08-19T06:25:12.856Z,18.05
2022-08-19T06:28:11.512Z,17.88
2022-08-19T06:30:29.661Z,18.07
2022-08-19T06:32:56.204Z,18.03
2022-08-19T06:35:22.947Z,18.10
2022-08-19T06:37:49.490Z,18.25
2022-08-19T06:40:16.119Z,18.37
2022-08-19T06:42:50.955Z,18.37
2022-08-19T06:45:21.517Z,18.44
2022-08-19T06:47:52.683Z,18.67
2022-08-19T06:50:19.719Z,18.74
2022-08-19T06:52:47.850Z,18.70
2022-08-19T06:55:18.460Z,18.84
2022-08-19T06:57:47.192Z,18.79
2022-08-19T07:00:14.985Z,18.97
2022-08-19T07:02:49.561Z,19.22
2022-08-19T07:05:22.881Z,19.17
2022-08-19T07:07:49.528Z,19.21
2022-08-19T07:10:17.779Z,19.24
2022-08-19T07:12:45.357Z,19.23
2022-08-19T07:15:12.573Z,19.29
2022-08-19T07:17:44.277Z,19.28
2022-08-19T07:20:11.864Z,19.12
2022-08-19T07:22:40.170Z,19.05
2022-08-19T07:25:10.448Z,19.10
2022-08-19T07:27:40.390Z,19.02
2022-08-19T07:30:11.678Z,19.05
2022-08-19T07:32:43.384Z,19.11
2022-08-19T07:35:10.718Z,19.14
2022-08-19T07:37:40.645Z,19.14
2022-08-19T07:40:10.562Z,19.21
2022-08-19T07:42:37.267Z,19.38
2022-08-19T07:45:04.600Z,19.58
2022-08-19T07:47:47.915Z,19.73
2022-08-19T07:50:19.576Z,20.00
2022-08-19T07:52:49.049Z,20.06
2022-08-19T07:55:41.061Z,20.00
2022-08-19T07:58:11.266Z,19.80
2022-08-19T08:00:40.545Z,19.89
2022-08-19T08:03:07.258Z,19.90
2022-08-19T08:05:52.403Z,20.19
2022-08-19T08:08:27.670Z,20.85
2022-08-19T08:10:56.862Z,20.98
2022-08-19T08:13:25.683Z,20.95
2022-08-19T08:15:54.688Z,20.88
2022-08-19T08:18:23.262Z,20.93
2022-08-19T08:20:55.640Z,20.86
2022-08-19T08:23:26.800Z,21.37
2022-08-19T08:25:57.594Z,22.08
2022-08-19T08:28:26.166Z,22.50
2022-08-19T08:30:56.642Z,23.08
2022-08-19T08:33:32.741Z,23.17
2022-08-19T08:36:09.467Z,23.31
2022-08-19T08:38:41.237Z,22.88
2022-08-19T08:41:15.206Z,22.96
2022-08-19T08:43:44.584Z,23.03
2022-08-19T08:46:32.348Z,23.26
2022-08-19T08:49:19.660Z,23.30
2022-08-19T08:51:59.329Z,23.25
2022-08-19T08:54:32.990Z,23.00
2022-08-19T08:57:03.381Z,22.98
2022-08-19T08:59:36.243Z,23.46
2022-08-19T09:02:03.213Z,23.72
2022-08-19T09:04:29.971Z,23.76
2022-08-19T09:07:26.256Z,23.62
2022-08-19T09:10:30.615Z,23.14
2022-08-19T09:13:09.458Z,22.84
2022-08-19T09:15:45.416Z,22.44
2022-08-19T09:18:15.415Z,22.24
2022-08-19T09:20:48.383Z,22.08
2022-08-19T09:23:16.080Z,22.26
2022-08-19T09:25:43.115Z,22.26
2022-08-19T09:28:21.987Z,22.65
2022-08-19T09:30:49.954Z,23.26
2022-08-19T09:33:20.573Z,23.47
2022-08-19T09:35:49.775Z,23.55
2022-08-19T09:38:21.521Z,24.36
2022-08-19T09:40:48.086Z,25.33
2022-08-19T09:43:14.663Z,25.54
2022-08-19T09:45:41.645Z,25.35
2022-08-19T09:48:09.540Z,24.81
2022-08-19T09:50:52.055Z,24.37
2022-08-19T09:53:19.779Z,24.30
2022-08-19T09:55:46.365Z,25.44
2022-08-19T09:58:12.924Z,26.37
2022-08-19T10:00:40.781Z,26.42
2022-08-19T10:03:07.338Z,25.77
2022-08-19T10:05:50.627Z,25.47
2022-08-19T10:08:34.917Z,26.36
2022-08-19T10:11:28.586Z,27.17
2022-08-19T10:13:50.605Z,28.27
2022-08-19T10:16:20.993Z,28.58
2022-08-19T10:18:49.519Z,29.31
2022-08-19T10:21:22.587Z,29.77
2022-08-19T10:23:55.712Z,29.41
2022-08-19T10:26:31.041Z,29.04
2022-08-19T10:28:58.125Z,28.57
2022-08-19T10:32:00.510Z,27.60
2022-08-19T10:34:27.011Z,28.05
2022-08-19T10:36:56.501Z,29.27
2022-08-19T10:39:30.605Z,29.70
2022-08-19T10:41:57.903Z,29.27
2022-08-19T10:44:31.928Z,28.53
2022-08-19T10:47:00.273Z,27.35
2022-08-19T10:49:28.004Z,26.39
2022-08-19T10:52:17.513Z,25.89
2022-08-19T10:55:05.171Z,25.31
2022-08-19T11:00:24.225Z,24.66
2022-08-19T11:02:51.391Z,23.76
2022-08-19T11:05:18.744Z,23.29
2022-08-19T11:07:46.413Z,22.91
2022-08-19T11:10:19.552Z,22.68
2022-08-19T11:12:48.333Z,22.61
2022-08-19T11:15:15.196Z,22.56
2022-08-19T11:17:44.238Z,22.52
2022-08-19T11:20:15.576Z,22.43
2022-08-19T11:22:43.231Z,22.56
2022-08-19T11:25:14.663Z,22.88
2022-08-19T11:27:44.498Z,23.49
2022-08-19T11:30:14.042Z,23.68
2022-08-19T11:32:47.049Z,23.51
2022-08-19T11:35:16.886Z,23.23
2022-08-19T11:37:43.451Z,23.02
2022-08-19T11:40:10.640Z,23.07
2022-08-19T11:42:56.560Z,23.11
2022-08-19T11:45:29.068Z,23.44
2022-08-19T11:47:56.471Z,23.62
2022-08-19T11:50:24.558Z,23.94
2022-08-19T11:52:55.031Z,24.11
2022-08-19T11:55:22.158Z,24.33
2022-08-19T11:57:48.821Z,24.12
2022-08-19T12:00:16.540Z,23.97
2022-08-19T12:02:46.422Z,23.77
2022-08-19T12:05:16.117Z,23.77
2022-08-19T12:07:43.700Z,23.76
2022-08-19T12:10:10.881Z,23.90
2022-08-19T12:12:43.406Z,23.56
2022-08-19T12:15:12.271Z,23.55
2022-08-19T12:17:39.559Z,23.34
2022-08-19T12:20:18.332Z,23.09
2022-08-19T12:22:51.196Z,23.21
2022-08-19T12:25:21.733Z,23.20
2022-08-19T12:27:57.288Z,23.17
2022-08-19T12:30:25.159Z,23.32
2022-08-19T12:32:52.745Z,23.37
2022-08-19T12:35:22.154Z,23.65
2022-08-19T12:37:56.911Z,24.00
2022-08-19T12:40:26.443Z,24.44
2022-08-19T12:42:54.084Z,24.78
2022-08-19T12:45:20.918Z,25.07
2022-08-19T12:47:47.839Z,25.51
2022-08-19T12:50:16.733Z,25.54
2022-08-19T12:52:45.698Z,25.38
2022-08-19T12:55:15.352Z,25.11
2022-08-19T12:57:41.894Z,25.47
2022-08-19T13:00:15.364Z,25.57
2022-08-19T13:02:45.496Z,25.66
2022-08-19T13:05:17.613Z,25.83
2022-08-19T13:07:45.548Z,25.72
2022-08-19T13:10:16.506Z,25.78
2022-08-19T13:12:44.247Z,26.12
2022-08-19T13:15:11.621Z,26.03
2022-08-19T13:17:39.673Z,25.91
2022-08-19T13:20:10.161Z,25.71
2022-08-19T13:22:37.101Z,25.10
2022-08-19T13:25:06.362Z,24.96
2022-08-19T13:27:33.359Z,24.71
2022-08-19T13:30:19.652Z,24.46
2022-08-19T13:33:04.504Z,24.40
2022-08-19T13:35:31.153Z,24.28
2022-08-19T13:37:57.696Z,24.38
2022-08-19T13:40:27.281Z,24.73
2022-08-19T13:42:55.843Z,24.80
2022-08-19T13:45:25.444Z,24.89
2022-08-19T13:47:59.254Z,25.37
2022-08-19T13:50:32.491Z,25.41
2022-08-19T13:53:00.253Z,25.74
2022-08-19T13:55:27.947Z,26.06
2022-08-19T13:57:57.083Z,26.23
2022-08-19T14:00:27.575Z,26.24
2022-08-19T14:02:57.108Z,27.21
2022-08-19T14:05:25.691Z,28.45
2022-08-19T14:07:52.882Z,29.30
2022-08-19T14:10:20.368Z,29.36
2022-08-19T14:12:53.701Z,29.00
2022-08-19T14:15:20.365Z,28.55
2022-08-19T14:17:50.170Z,28.22
2022-08-19T14:20:18.481Z,27.51
2022-08-19T14:22:50.176Z,27.78
2022-08-19T14:25:21.116Z,27.62
2022-08-19T14:27:51.795Z,27.50
2022-08-19T14:30:22.893Z,27.55
2022-08-19T14:32:49.507Z,27.76
2022-08-19T14:35:17.169Z,27.56
2022-08-19T14:37:46.114Z,27.06
2022-08-19T14:40:16.076Z,26.57
2022-08-19T14:42:43.228Z,26.25
2022-08-19T14:45:12.366Z,26.15
2022-08-19T14:47:39.943Z,25.99
2022-08-19T14:50:10.578Z,25.78
2022-08-19T14:52:44.924Z,25.72
2022-08-19T14:55:11.740Z,25.91
2022-08-19T14:57:38.318Z,25.97
2022-08-19T15:00:05.561Z,26.00
2022-08-19T15:02:34.502Z,25.96
2022-08-19T15:05:01.790Z,25.75
2022-08-19T15:07:29.628Z,25.79
2022-08-19T15:09:56.706Z,26.00
2022-08-19T15:12:23.604Z,25.88
2022-08-19T15:14:56.216Z,26.12
2022-08-19T15:17:28.049Z,26.01
2022-08-19T15:20:13.646Z,26.29
2022-08-19T15:22:40.986Z,26.19
2022-08-19T15:25:09.102Z,26.29
2022-08-19T15:27:39.994Z,26.32
2022-08-19T15:30:09.465Z,26.52
2022-08-19T15:32:37.365Z,26.88
2022-08-19T15:35:06.005Z,27.31
2022-08-19T15:37:36.954Z,27.49
2022-08-19T15:40:05.403Z,27.27
2022-08-19T15:42:32.411Z,26.92
2022-08-19T15:45:00.500Z,26.56
2022-08-19T15:47:35.393Z,26.30
2022-08-19T15:50:29.125Z,26.01
2022-08-19T15:52:58.657Z,25.83
2022-08-19T15:55:33.521Z,25.66
2022-08-19T15:58:28.435Z,25.55
2022-08-19T16:01:20.709Z,25.47
2022-08-19T16:04:14.679Z,25.22
2022-08-19T16:06:51.502Z,25.04
2022-08-19T16:09:25.086Z,25.00
2022-08-19T16:11:56.937Z,24.84
2022-08-19T16:14:26.672Z,24.65
2022-08-19T16:16:57.060Z,24.23
2022-08-19T16:19:27.567Z,24.38
2022-08-19T16:21:56.427Z,24.85
2022-08-19T16:24:27.624Z,25.08
2022-08-19T16:26:56.059Z,25.38
2022-08-19T16:29:33.750Z,25.35
2022-08-19T16:32:02.914Z,25.24
2022-08-19T16:34:33.593Z,25.42
2022-08-19T16:37:00.992Z,25.45
2022-08-19T16:39:27.943Z,25.70
2022-08-19T16:41:58.161Z,25.99
2022-08-19T16:44:30.805Z,26.30
2022-08-19T16:47:01.662Z,26.61
2022-08-19T16:49:54.611Z,26.86
2022-08-19T16:52:27.619Z,26.69
2022-08-19T16:54:57.652Z,26.31
2022-08-19T16:57:26.957Z,25.97
2022-08-19T16:59:53.930Z,25.46
2022-08-19T17:02:29.795Z,25.57
2022-08-19T17:04:59.028Z,25.78
2022-08-19T17:07:27.918Z,26.25
2022-08-19T17:09:57.481Z,26.37
2022-08-19T17:12:31.816Z,26.56
2022-08-19T17:15:01.501Z,26.36
2022-08-19T17:17:29.782Z,26.48
2022-08-19T17:19:57.676Z,26.63
2022-08-19T17:22:27.383Z,26.62
2022-08-19T17:24:57.963Z,26.67
2022-08-19T17:27:32.100Z,26.45
2022-08-19T17:30:00.344Z,26.16
2022-08-19T17:32:27.304Z,25.81
2022-08-19T17:34:56.965Z,25.62
2022-08-19T17:37:23.615Z,25.62
2022-08-19T17:39:50.353Z,25.30
2022-08-19T17:42:17.020Z,24.98
2022-08-19T17:44:46.872Z,24.64
2022-08-19T17:47:18.101Z,24.59
2022-08-19T17:49:44.762Z,24.38
2022-08-19T17:52:11.975Z,24.19
2022-08-19T17:54:38.901Z,23.75
2022-08-19T17:57:05.646Z,23.67
2022-08-19T17:59:32.653Z,23.67
2022-08-19T18:01:59.837Z,23.48
2022-08-19T18:04:29.468Z,23.45
2022-08-19T18:06:57.027Z,23.56
2022-08-19T18:09:41.947Z,23.51
2022-08-19T18:12:11.418Z,23.47
2022-08-19T18:14:39.255Z,23.38
2022-08-19T18:17:09.988Z,23.38
2022-08-19T18:19:43.379Z,23.35
2022-08-19T18:22:30.594Z,23.27
2022-08-19T18:24:58.489Z,23.17
2022-08-19T18:29:58.038Z,23.07
2022-08-19T18:32:27.163Z,23.03
2022-08-19T18:34:54.699Z,22.98
2022-08-19T18:37:21.746Z,22.97
2022-08-19T18:40:06.974Z,22.85
2022-08-19T18:42:52.056Z,22.80
2022-08-19T18:45:37.479Z,22.74
2022-08-19T18:48:26.803Z,22.42
2022-08-19T18:50:59.063Z,21.76
2022-08-19T18:53:28.147Z,21.33
2022-08-19T18:55:55.351Z,21.13
2022-08-19T18:58:32.060Z,21.01
2022-08-19T19:01:16.723Z,20.98
2022-08-19T19:03:46.686Z,20.89
2022-08-19T19:06:25.604Z,20.82
2022-08-19T19:08:55.086Z,20.76
2022-08-19T19:11:26.146Z,20.61
2022-08-19T19:13:53.251Z,20.61
2022-08-19T19:16:24.397Z,20.56
2022-08-19T19:18:53.772Z,20.33
2022-08-19T19:21:23.257Z,20.44
2022-08-19T19:23:51.346Z,20.32
2022-08-19T19:26:18.213Z,20.38
2022-08-19T19:28:47.864Z,20.26
2022-08-19T19:31:29.404Z,20.26
2022-08-19T19:33:56.226Z,20.16
2022-08-19T19:36:24.010Z,20.09
2022-08-19T19:38:50.895Z,19.83
2022-08-19T19:41:24.141Z,19.85
2022-08-19T19:44:23.270Z,19.72
2022-08-19T19:46:42.695Z,19.74
2022-08-19T19:49:10.183Z,19.68
2022-08-19T19:51:39.508Z,19.47
2022-08-19T19:54:13.687Z,19.41
2022-08-19T19:56:45.055Z,19.60
2022-08-19T19:59:12.131Z,19.45
2022-08-19T20:01:38.725Z,19.48
2022-08-19T20:04:06.762Z,19.59
2022-08-19T20:06:34.046Z,19.55
2022-08-19T20:09:10.765Z,19.64
2022-08-19T20:11:53.722Z,19.71
2022-08-19T20:14:31.861Z,19.76
2022-08-19T20:17:02.580Z,19.64
2022-08-19T20:19:34.191Z,19.76
2022-08-19T20:22:01.559Z,19.51
2022-08-19T20:24:34.830Z,19.82
2022-08-19T20:27:03.700Z,19.67
2022-08-19T20:29:40.253Z,19.83
2022-08-19T20:32:10.082Z,19.83
2022-08-19T20:34:42.151Z,19.83
2022-08-19T20:37:11.635Z,19.84
2022-08-19T20:39:38.440Z,19.71
2022-08-19T20:42:05.768Z,19.88
2022-08-19T20:44:32.716Z,19.63
2022-08-19T20:47:04.096Z,19.84
2022-08-19T20:49:31.375Z,19.75
2022-08-19T20:52:00.578Z,19.69
2022-08-19T20:54:27.880Z,19.87
2022-08-19T20:56:55.089Z,19.86
2022-08-19T20:59:23.033Z,19.81
2022-08-19T21:01:53.642Z,19.65
2022-08-19T21:04:21.936Z,19.85
2022-08-19T21:06:49.985Z,19.74
2022-08-19T21:09:19.862Z,19.82
2022-08-19T21:11:47.202Z,19.90
2022-08-19T21:14:14.139Z,19.94
2022-08-19T21:16:40.797Z,19.76
2022-08-19T21:19:07.641Z,19.67
2022-08-19T21:21:35.051Z,19.63
2022-08-19T21:24:04.892Z,19.58
2022-08-19T21:26:34.685Z,19.43
2022-08-19T21:29:04.816Z,19.63
2022-08-19T21:31:32.619Z,19.63
2022-08-19T21:34:03.913Z,19.49
2022-08-19T21:36:33.156Z,19.33
2022-08-19T21:38:59.766Z,19.36
2022-08-19T21:41:26.640Z,19.45
2022-08-19T21:43:53.287Z,19.44
2022-08-19T21:46:20.019Z,19.56
2022-08-19T21:48:46.656Z,19.62
2022-08-19T21:51:13.655Z,19.68
2022-08-19T21:53:40.573Z,19.69
2022-08-19T21:56:11.514Z,19.69
2022-08-19T22:01:23.049Z,19.62
2022-08-19T22:03:49.774Z,19.63
2022-08-19T22:06:17.776Z,19.68
2022-08-19T22:08:44.945Z,19.68
2022-08-19T22:11:12.003Z,19.64
2022-08-19T22:13:40.391Z,19.44
2022-08-19T22:16:08.810Z,19.56
2022-08-19T22:18:35.569Z,19.55
2022-08-19T22:21:08.296Z,19.59
2022-08-19T22:23:45.819Z,19.78
2022-08-19T22:26:14.454Z,20.07
2022-08-19T22:28:42.457Z,20.02
2022-08-19T22:31:32.978Z,19.89
2022-08-19T22:34:05.955Z,19.50
2022-08-19T22:36:32.649Z,19.50
2022-08-19T22:39:00.253Z,19.44
2022-08-19T22:41:28.547Z,19.46
2022-08-19T22:43:55.662Z,19.36
2022-08-19T22:46:22.320Z,19.38
2022-08-19T22:48:56.710Z,19.43
2022-08-19T22:51:46.562Z,19.60
2022-08-19T22:54:13.177Z,19.61
2022-08-19T22:56:39.806Z,19.50
2022-08-19T22:59:09.193Z,19.63
2022-08-19T23:01:41.854Z,19.38
2022-08-19T23:04:08.622Z,19.49
2022-08-19T23:06:40.341Z,19.64
2022-08-19T23:09:09.117Z,19.71
2022-08-19T23:11:43.554Z,19.49
2022-08-19T23:14:12.749Z,19.71
2022-08-19T23:16:41.547Z,19.72
2022-08-19T23:19:08.668Z,19.63
2022-08-19T23:21:38.552Z,19.56
2022-08-19T23:24:05.796Z,19.80
2022-08-19T23:26:35.760Z,19.55
2022-08-19T23:29:22.347Z,19.53
2022-08-19T23:31:49.752Z,19.48
2022-08-19T23:34:18.945Z,19.38
2022-08-19T23:36:46.376Z,19.33
2022-08-19T23:39:13.086Z,19.32
2022-08-19T23:41:39.642Z,19.49
2022-08-19T23:44:06.690Z,19.42
2022-08-19T23:46:54.397Z,19.65
2022-08-19T23:49:21.504Z,19.64
2022-08-19T23:51:48.112Z,19.55
2022-08-19T23:54:14.708Z,19.70
2022-08-19T23:56:41.587Z,19.71
2022-08-19T23:59:10.823Z,19.76
